createdAt,value
2022-12-29T00:02:33.429Z,99375.53
2022-12-29T00:07:34.923Z,99370.78
2022-12-29T00:12:55.247Z,99356.38
2022-12-29T00:17:56.814Z,99356.47
2022-12-29T00:23:17.016Z,99368.84
2022-12-29T00:28:38.530Z,99370.78
2022-12-29T00:33:58.578Z,99376.97
2022-12-29T00:39:28.335Z,99376.97
2022-12-29T00:44:29.694Z,99364.50
2022-12-29T00:49:31.823Z,99386.22
2022-12-29T00:54:35.483Z,99367.16
2022-12-29T00:59:40.937Z,99386.50
2022-12-29T01:04:42.377Z,99362.13
2022-12-29T01:10:02.250Z,99358.50
2022-12-29T01:15:03.883Z,99354.88
2022-12-29T01:20:05.816Z,99349.25
2022-12-29T01:25:07.974Z,99340.28
2022-12-29T01:30:10.142Z,99328.53
2022-12-29T01:35:11.733Z,99324.59
2022-12-29T01:40:13.398Z,99344.63
2022-12-29T01:45:18.082Z,99291.91
2022-12-29T01:50:27.123Z,99327.81
2022-12-29T01:55:32.255Z,99347.44
2022-12-29T02:00:34.094Z,99337.75
2022-12-29T02:05:41.421Z,99342.50
2022-12-29T02:10:44.441Z,99340.53
2022-12-29T02:16:20.027Z,99346.44
2022-12-29T02:21:42.656Z,99338.03
2022-12-29T02:26:55.639Z,99328.78
2022-12-29T02:32:06.792Z,99328.63
2022-12-29T02:37:25.892Z,99344.16
2022-12-29T02:42:49.510Z,99332.81
2022-12-29T02:48:13.295Z,99303.16
2022-12-29T02:53:18.621Z,99323.47
2022-12-29T02:58:23.507Z,99336.50
2022-12-29T03:03:24.978Z,99322.31
2022-12-29T03:08:43.863Z,99313.63
2022-12-29T03:14:12.180Z,99320.88
2022-12-29T03:19:21.227Z,99320.00
2022-12-29T03:24:27.844Z,99297.75
2022-12-29T03:29:34.048Z,99293.00
2022-12-29T03:34:37.133Z,99290.34
2022-12-29T03:39:39.716Z,99278.16
2022-12-29T03:44:44.737Z,99283.34
2022-12-29T03:49:46.417Z,99264.53
2022-12-29T03:54:49.689Z,99258.63
2022-12-29T03:59:51.126Z,99259.16
2022-12-29T04:04:52.583Z,99267.53
2022-12-29T04:09:54.148Z,99276.72
2022-12-29T04:14:55.535Z,99262.13
2022-12-29T04:20:17.031Z,99263.81
2022-12-29T04:25:18.400Z,99252.72
2022-12-29T04:30:19.991Z,99258.41
2022-12-29T04:35:21.385Z,99256.31
2022-12-29T04:40:24.323Z,99277.69
2022-12-29T04:45:25.670Z,99277.06
2022-12-29T04:50:27.020Z,99263.59
2022-12-29T04:55:28.541Z,99270.84
2022-12-29T05:00:29.925Z,99276.56
2022-12-29T05:05:31.269Z,99290.56
2022-12-29T05:10:32.870Z,99286.75
2022-12-29T05:15:34.641Z,99279.88
2022-12-29T05:20:36.050Z,99279.22
2022-12-29T05:25:37.538Z,99275.03
2022-12-29T05:30:38.937Z,99282.84
2022-12-29T05:35:40.412Z,99285.16
2022-12-29T05:40:41.796Z,99270.16
2022-12-29T05:45:43.246Z,99286.84
2022-12-29T05:50:48.985Z,99267.88
2022-12-29T05:55:50.489Z,99260.41
2022-12-29T06:00:52.381Z,99271.28
2022-12-29T06:05:53.754Z,99279.66
2022-12-29T06:10:56.259Z,99269.00
2022-12-29T06:15:58.219Z,99267.09
2022-12-29T06:21:03.710Z,99279.81
2022-12-29T06:26:05.445Z,99253.78
2022-12-29T06:31:10.915Z,99267.69
2022-12-29T06:36:12.274Z,99271.19
2022-12-29T06:41:13.674Z,99261.19
2022-12-29T06:46:15.424Z,99266.69
2022-12-29T06:51:16.916Z,99261.19
2022-12-29T06:56:19.848Z,99243.56
2022-12-29T07:01:21.350Z,99256.13
2022-12-29T07:06:23.852Z,99264.44
2022-12-29T07:11:25.770Z,99228.81
2022-12-29T07:16:27.190Z,99216.97
2022-12-29T07:21:28.547Z,99240.91
2022-12-29T07:26:35.933Z,99239.06
2022-12-29T07:31:37.971Z,99262.44
2022-12-29T07:36:39.541Z,99242.81
2022-12-29T07:41:40.921Z,99237.16
2022-12-29T07:46:53.976Z,99240.50
2022-12-29T07:51:58.177Z,99245.34
2022-12-29T07:57:01.212Z,99239.72
2022-12-29T08:02:02.811Z,99242.06
2022-12-29T08:07:04.319Z,99258.22
2022-12-29T08:12:05.919Z,99258.59
2022-12-29T08:17:07.412Z,99279.19
2022-12-29T08:22:08.812Z,99277.44
2022-12-29T08:27:19.684Z,99299.91
2022-12-29T08:32:22.104Z,99301.91
2022-12-29T08:37:29.039Z,99296.00
2022-12-29T08:42:33.327Z,99308.66
2022-12-29T08:47:34.857Z,99306.53
2022-12-29T08:52:36.229Z,99303.22
2022-12-29T08:57:37.955Z,99324.56
2022-12-29T09:02:39.529Z,99294.75
2022-12-29T09:07:41.181Z,99330.06
2022-12-29T09:12:42.589Z,99336.88
2022-12-29T09:17:47.040Z,99344.13
2022-12-29T09:22:49.207Z,99341.47
2022-12-29T09:27:53.495Z,99355.19
2022-12-29T09:32:55.565Z,99357.09
2022-12-29T09:37:57.149Z,99368.53
2022-12-29T09:43:13.874Z,99384.41
2022-12-29T09:48:27.244Z,99388.94
2022-12-29T09:53:39.065Z,99370.13
2022-12-29T09:58:45.848Z,99379.88
2022-12-29T10:03:52.679Z,99370.91
2022-12-29T10:09:33.175Z,99372.00
2022-12-29T10:14:53.053Z,99375.34
2022-12-29T10:20:06.548Z,99385.19
2022-12-29T10:25:16.150Z,99376.97
2022-12-29T10:30:18.237Z,99373.88
2022-12-29T10:35:21.560Z,99380.31
2022-12-29T10:40:37.269Z,99368.19
2022-12-29T10:45:40.107Z,99375.38
2022-12-29T10:50:43.937Z,99374.16
2022-12-29T10:55:46.734Z,99368.84
2022-12-29T11:00:54.551Z,99373.13
2022-12-29T11:06:01.880Z,99368.69
2022-12-29T11:11:09.785Z,99371.81
2022-12-29T11:16:12.828Z,99379.25
2022-12-29T11:21:28.675Z,99369.44
2022-12-29T11:26:34.646Z,99378.59
2022-12-29T11:31:42.624Z,99391.63
2022-12-29T11:36:44.377Z,99383.88
2022-12-29T11:41:53.454Z,99392.34
2022-12-29T11:46:55.925Z,99388.66
2022-12-29T11:51:57.837Z,99374.25
2022-12-29T11:57:19.434Z,99375.59
2022-12-29T12:02:43.911Z,99371.38
2022-12-29T12:07:50.613Z,99366.81
2022-12-29T12:13:03.374Z,99354.34
2022-12-29T12:18:12.426Z,99340.34
2022-12-29T12:23:28.499Z,99378.50
2022-12-29T12:28:36.297Z,99377.09
2022-12-29T12:33:43.784Z,99383.72
2022-12-29T12:39:11.606Z,99372.91
2022-12-29T12:44:24.471Z,99385.63
2022-12-29T12:49:56.538Z,99383.31
2022-12-29T12:55:03.023Z,99367.66
2022-12-29T13:00:18.887Z,99385.00
2022-12-29T13:05:27.252Z,99387.50
2022-12-29T13:10:53.558Z,99365.53
2022-12-29T13:16:14.700Z,99370.91
2022-12-29T13:22:06.524Z,99369.91
2022-12-29T13:27:33.544Z,99360.25
2022-12-29T13:32:50.835Z,99373.34
2022-12-29T13:37:57.732Z,99357.59
2022-12-29T13:43:01.698Z,99370.41
2022-12-29T13:48:03.027Z,99378.19
2022-12-29T13:53:26.518Z,99388.28
2022-12-29T13:58:30.866Z,99384.63
2022-12-29T14:03:44.744Z,99379.22
2022-12-29T14:08:47.366Z,99375.81
2022-12-29T14:13:49.751Z,99374.78
2022-12-29T14:18:51.493Z,99384.91
2022-12-29T14:23:54.845Z,99402.72
2022-12-29T14:29:01.326Z,99400.63
2022-12-29T14:34:11.811Z,99404.19
2022-12-29T14:39:33.402Z,99419.63
2022-12-29T14:44:46.231Z,99426.13
2022-12-29T14:49:48.274Z,99435.53
2022-12-29T14:54:50.863Z,99442.78
2022-12-29T15:00:01.687Z,99438.66
2022-12-29T15:05:04.426Z,99424.38
2022-12-29T15:10:14.741Z,99412.81
2022-12-29T15:15:21.091Z,99428.34
2022-12-29T15:20:28.978Z,99432.06
2022-12-29T15:25:31.904Z,99438.06
2022-12-29T15:30:33.558Z,99437.84
2022-12-29T15:35:38.419Z,99424.25
2022-12-29T15:40:39.787Z,99419.44
2022-12-29T15:45:41.530Z,99446.69
2022-12-29T15:50:44.121Z,99439.25
2022-12-29T15:55:48.451Z,99460.72
2022-12-29T16:00:58.588Z,99469.16
2022-12-29T16:06:25.571Z,99487.13
2022-12-29T16:11:32.081Z,99489.78
2022-12-29T16:16:39.116Z,99489.09
2022-12-29T16:21:44.975Z,99502.00
2022-12-29T16:26:53.075Z,99496.81
2022-12-29T16:32:01.693Z,99500.91
2022-12-29T16:37:33.600Z,99518.84
2022-12-29T16:42:50.832Z,99535.94
2022-12-29T16:48:12.025Z,99525.88
2022-12-29T16:53:40.592Z,99533.19
2022-12-29T16:58:46.424Z,99537.13
2022-12-29T17:03:57.645Z,99536.41
2022-12-29T17:08:59.266Z,99544.84
2022-12-29T17:14:00.739Z,99518.94
2022-12-29T17:19:02.592Z,99552.00
2022-12-29T17:24:06.935Z,99558.00
2022-12-29T17:29:16.101Z,99558.03
2022-12-29T17:34:17.866Z,99558.53
2022-12-29T17:39:19.310Z,99558.94
2022-12-29T17:44:23.349Z,99552.50
2022-12-29T17:49:24.874Z,99556.69
2022-12-29T17:54:26.430Z,99557.84
2022-12-29T17:59:27.776Z,99551.97
2022-12-29T18:04:29.121Z,99548.56
2022-12-29T18:09:31.639Z,99540.72
2022-12-29T18:14:33.053Z,99555.59
2022-12-29T18:19:36.262Z,99555.44
2022-12-29T18:24:37.849Z,99567.34
2022-12-29T18:29:40.659Z,99570.13
2022-12-29T18:34:42.461Z,99575.72
2022-12-29T18:39:43.838Z,99578.53
2022-12-29T18:44:45.268Z,99589.72
2022-12-29T18:49:46.639Z,99591.66
2022-12-29T18:54:47.986Z,99592.06
2022-12-29T18:59:49.336Z,99591.63
2022-12-29T19:04:53.156Z,99594.16
2022-12-29T19:09:56.054Z,99593.16
2022-12-29T19:14:57.411Z,99613.44
2022-12-29T19:20:00.891Z,99610.19
2022-12-29T19:25:02.673Z,99624.22
2022-12-29T19:30:04.465Z,99621.56
2022-12-29T19:35:06.424Z,99628.13
2022-12-29T19:40:09.540Z,99621.00
2022-12-29T19:45:12.405Z,99630.66
2022-12-29T19:50:16.145Z,99642.97
2022-12-29T19:55:18.297Z,99637.53
2022-12-29T20:00:19.824Z,99647.59
2022-12-29T20:05:21.354Z,99643.94
2022-12-29T20:10:23.738Z,99634.72
2022-12-29T20:15:25.136Z,99639.16
2022-12-29T20:20:26.567Z,99642.56
2022-12-29T20:25:46.579Z,99635.13
2022-12-29T20:31:06.736Z,99648.28
2022-12-29T20:36:11.327Z,99657.06
2022-12-29T20:41:13.784Z,99666.91
2022-12-29T20:46:20.419Z,99673.59
2022-12-29T20:51:23.334Z,99669.97
2022-12-29T20:56:27.055Z,99676.38
2022-12-29T21:01:28.960Z,99686.59
2022-12-29T21:06:30.475Z,99689.69
2022-12-29T21:11:31.985Z,99698.19
2022-12-29T21:16:33.420Z,99699.16
2022-12-29T21:21:35.074Z,99720.66
2022-12-29T21:26:36.741Z,99692.69
2022-12-29T21:31:38.142Z,99704.56
2022-12-29T21:36:40.638Z,99707.75
2022-12-29T21:41:42.564Z,99703.13
2022-12-29T21:46:46.934Z,99702.81
2022-12-29T21:51:51.317Z,99726.00
2022-12-29T21:56:52.641Z,99738.88
2022-12-29T22:02:12.808Z,99747.84
2022-12-29T22:07:33.079Z,99749.72
2022-12-29T22:12:54.055Z,99747.19
2022-12-29T22:17:55.879Z,99761.56
2022-12-29T22:22:57.677Z,99749.06
2022-12-29T22:27:59.878Z,99773.66
2022-12-29T22:33:02.207Z,99776.31
2022-12-29T22:38:03.659Z,99774.53
2022-12-29T22:43:11.091Z,99787.34
2022-12-29T22:48:14.415Z,99792.06
2022-12-29T22:53:15.847Z,99784.25
2022-12-29T22:58:17.224Z,99775.59
2022-12-29T23:03:19.042Z,99788.88
2022-12-29T23:08:20.563Z,99802.78
2022-12-29T23:13:21.937Z,99813.41
2022-12-29T23:18:24.178Z,99811.94
2022-12-29T23:23:48.900Z,99814.72
2022-12-29T23:28:56.288Z,99829.44
2022-12-29T23:34:03.927Z,99833.06
2022-12-29T23:39:06.499Z,99837.53
2022-12-29T23:44:07.913Z,99843.78
2022-12-29T23:49:09.598Z,99839.84
2022-12-29T23:54:10.967Z,99856.97
2022-12-29T23:59:12.338Z,99863.47
